Time;durP1;ratioP1;P1;durP2;ratioP2;P2;SDS_P1;SDS_P2;PMS_P1;PMS_P2;Temp;Humidity;BMP_temperature;BMP_pressure;BME280_temperature;BME280_humidity;BME280_pressure;Samples;Min_cycle;Max_cycle;Signal;HPM_P1;HPM_P2
2023/05/23 00:01:36;;;;;;;14.60;6.28;;;11.40;99.90;;;;;;5025359;28;20217;-82
2023/05/23 00:04:01;;;;;;;16.77;6.15;;;11.40;99.90;;;;;;5024476;28;20182;-83
2023/05/23 00:06:27;;;;;;;15.73;6.22;;;11.40;99.90;;;;;;4994138;28;20186;-82
2023/05/23 00:08:53;;;;;;;18.60;7.00;;;11.40;99.90;;;;;;5008695;28;20193;-82
2023/05/23 00:11:19;;;;;;;12.20;6.40;;;11.40;99.90;;;;;;4993247;28;20774;-83
2023/05/23 00:13:45;;;;;;;18.88;6.90;;;11.30;99.90;;;;;;4994140;28;20182;-83
2023/05/23 00:16:10;;;;;;;22.58;7.75;;;11.30;99.90;;;;;;4997005;28;20196;-83
2023/05/23 00:18:39;;;;;;;15.07;6.95;;;11.30;99.90;;;;;;5028679;28;20182;-83
2023/05/23 00:21:04;;;;;;;12.10;6.80;;;11.30;99.90;;;;;;4997194;28;20169;-83
2023/05/23 00:23:32;;;;;;;12.95;6.68;;;11.30;99.90;;;;;;5028694;28;20547;-82
2023/05/23 00:25:59;;;;;;;13.88;6.53;;;11.20;99.90;;;;;;5011743;28;20224;-82
2023/05/23 00:28:25;;;;;;;13.85;7.13;;;11.20;99.90;;;;;;5028687;28;20293;-82
2023/05/23 00:30:51;;;;;;;16.50;7.72;;;11.20;99.90;;;;;;5028481;28;20203;-82
2023/05/23 00:33:20;;;;;;;11.45;5.97;;;11.20;99.90;;;;;;4996843;28;20668;-83
2023/05/23 00:35:46;;;;;;;12.75;6.35;;;11.20;99.90;;;;;;5028549;28;20182;-82
2023/05/23 00:38:13;;;;;;;13.07;6.97;;;11.20;99.90;;;;;;5028032;28;20701;-83
2023/05/23 00:40:39;;;;;;;16.10;6.90;;;11.10;99.90;;;;;;5028596;28;20666;-83
2023/05/23 00:43:07;;;;;;;13.05;7.13;;;11.10;99.90;;;;;;4996795;28;20182;-83
2023/05/23 00:45:32;;;;;;;11.88;7.07;;;11.00;99.90;;;;;;4997165;28;20659;-82
2023/05/23 00:47:59;;;;;;;13.80;7.18;;;11.00;99.90;;;;;;5028686;28;20208;-83
2023/05/23 00:50:28;;;;;;;17.42;6.97;;;11.00;99.90;;;;;;5028692;28;20186;-83
2023/05/23 00:52:55;;;;;;;14.63;7.25;;;11.00;99.90;;;;;;4996909;28;20243;-82
2023/05/23 00:55:23;;;;;;;11.25;6.10;;;11.00;99.90;;;;;;4995493;28;20205;-83
2023/05/23 00:57:50;;;;;;;16.00;7.15;;;10.90;99.90;;;;;;4996721;28;20192;-83
2023/05/23 01:00:16;;;;;;;10.98;6.30;;;10.90;99.90;;;;;;5027758;28;20236;-83
2023/05/23 01:02:46;;;;;;;18.35;7.47;;;10.80;99.90;;;;;;5028154;28;20182;-83
2023/05/23 01:05:16;;;;;;;10.88;6.45;;;10.80;99.90;;;;;;4995202;28;20260;-83
2023/05/23 01:07:42;;;;;;;12.55;5.40;;;10.80;99.90;;;;;;4996201;28;20518;-83
2023/05/23 01:10:10;;;;;;;13.45;6.85;;;10.80;99.90;;;;;;5027843;28;20174;-83
2023/05/23 01:13:16;;;;;;;14.07;6.70;;;10.80;99.90;;;;;;5011324;28;20560;-83
2023/05/23 01:16:03;;;;;;;14.90;6.60;;;10.70;99.90;;;;;;4982144;28;20198;-83
2023/05/23 01:18:56;;;;;;;12.75;6.38;;;10.70;99.90;;;;;;4996200;28;20656;-83
2023/05/23 01:21:24;;;;;;;14.00;6.43;;;10.70;99.90;;;;;;4998097;28;20173;-83
2023/05/23 01:24:04;;;;;;;17.60;6.05;;;10.60;99.90;;;;;;4995801;28;20248;-83
2023/05/23 01:27:16;;;;;;;12.05;6.65;;;10.60;99.90;;;;;;4996026;28;20172;-81
2023/05/23 01:29:47;;;;;;;12.10;6.55;;;10.60;99.90;;;;;;5027860;28;20177;-83
2023/05/23 01:32:14;;;;;;;15.85;6.35;;;10.60;99.90;;;;;;4994113;28;20209;-84
2023/05/23 01:34:42;;;;;;;15.93;6.65;;;10.60;99.90;;;;;;5026924;28;20206;-83
2023/05/23 01:37:18;;;;;;;12.35;7.10;;;10.60;99.90;;;;;;4995925;28;20228;-83
2023/05/23 01:39:44;;;;;;;16.10;7.38;;;10.60;99.90;;;;;;4997147;28;20681;-83
2023/05/23 01:42:11;;;;;;;19.00;7.32;;;10.50;99.90;;;;;;5027970;28;20232;-83
2023/05/23 01:44:38;;;;;;;14.38;6.40;;;10.50;99.90;;;;;;4994086;28;20273;-82
2023/05/23 01:47:05;;;;;;;14.15;6.93;;;10.50;99.90;;;;;;5010623;28;20198;-82
2023/05/23 01:49:33;;;;;;;16.33;7.28;;;10.50;99.90;;;;;;4994181;28;20174;-83
2023/05/23 01:52:00;;;;;;;16.65;7.32;;;10.50;99.90;;;;;;4994291;28;20675;-82
2023/05/23 01:54:28;;;;;;;13.15;5.88;;;10.50;99.90;;;;;;5027058;28;20186;-83
2023/05/23 01:56:56;;;;;;;15.68;6.72;;;10.40;99.90;;;;;;4994171;28;20236;-82
2023/05/23 01:59:21;;;;;;;17.58;7.07;;;10.40;99.90;;;;;;4994999;28;20174;-82
2023/05/23 02:01:47;;;;;;;15.57;6.88;;;10.40;99.90;;;;;;5026928;28;20196;-82
2023/05/23 02:04:13;;;;;;;11.77;5.80;;;10.30;99.90;;;;;;4995280;28;20182;-82
2023/05/23 02:06:40;;;;;;;12.77;6.68;;;10.30;99.90;;;;;;4993906;28;20244;-82
2023/05/23 02:09:06;;;;;;;18.77;6.95;;;10.30;99.90;;;;;;4995279;28;20229;-83
2023/05/23 02:11:32;;;;;;;12.65;5.93;;;10.30;99.90;;;;;;5010115;28;20671;-83
2023/05/23 02:13:58;;;;;;;10.18;6.32;;;10.20;99.90;;;;;;5010302;28;20189;-83
2023/05/23 02:16:25;;;;;;;14.70;7.07;;;10.20;99.90;;;;;;5026844;28;20232;-83
2023/05/23 02:18:51;;;;;;;15.00;6.93;;;10.20;99.90;;;;;;4995328;28;20173;-83
2023/05/23 02:21:17;;;;;;;14.55;6.70;;;10.20;99.90;;;;;;4995098;28;20174;-82
2023/05/23 02:23:43;;;;;;;10.02;6.28;;;10.10;99.90;;;;;;4995213;28;20636;-82
2023/05/23 02:26:09;;;;;;;14.15;6.53;;;10.10;99.90;;;;;;4995044;28;20193;-82
2023/05/23 02:28:34;;;;;;;11.57;5.97;;;10.10;99.90;;;;;;5009985;28;20217;-82
2023/05/23 02:31:01;;;;;;;13.15;6.38;;;10.10;99.90;;;;;;5026374;28;20185;-82
2023/05/23 02:33:26;;;;;;;13.95;6.72;;;10.00;99.90;;;;;;4993395;28;20224;-83
2023/05/23 02:35:54;;;;;;;16.40;8.05;;;10.00;99.90;;;;;;5025383;28;20178;-82
2023/05/23 02:38:19;;;;;;;14.02;6.47;;;10.00;99.90;;;;;;5009733;28;20196;-82
2023/05/23 02:40:45;;;;;;;15.80;6.72;;;10.00;99.90;;;;;;5026370;28;20182;-82
2023/05/23 02:43:11;;;;;;;13.70;6.57;;;10.00;99.90;;;;;;4994830;28;20536;-82
2023/05/23 02:45:37;;;;;;;16.67;7.00;;;10.10;99.90;;;;;;4994574;28;20652;-82
2023/05/23 02:48:02;;;;;;;18.33;7.72;;;10.10;99.90;;;;;;4994601;28;20587;-82
2023/05/23 02:50:29;;;;;;;11.50;6.82;;;10.10;99.90;;;;;;4994524;28;20279;-83
2023/05/23 02:52:54;;;;;;;15.38;7.22;;;10.10;99.90;;;;;;5026136;28;20210;-83
2023/05/23 02:55:20;;;;;;;17.65;7.60;;;10.10;99.90;;;;;;5026050;28;20186;-82
2023/05/23 02:57:46;;;;;;;16.08;7.43;;;10.10;99.90;;;;;;5025832;28;20631;-83
2023/05/23 03:00:12;;;;;;;14.02;7.97;;;10.10;99.90;;;;;;4994282;28;20178;-82
2023/05/23 03:02:38;;;;;;;15.50;7.50;;;10.10;99.90;;;;;;4994211;28;20631;-83
2023/05/23 03:05:05;;;;;;;15.65;7.60;;;10.10;99.90;;;;;;5009441;28;20205;-83
2023/05/23 03:07:32;;;;;;;14.43;7.72;;;10.10;99.90;;;;;;5025577;28;20189;-83
2023/05/23 03:09:59;;;;;;;10.35;7.05;;;10.20;99.90;;;;;;4994493;28;20189;-83
2023/05/23 03:12:26;;;;;;;17.58;6.90;;;10.20;99.90;;;;;;4994111;28;20209;-82
2023/05/23 03:14:52;;;;;;;16.60;7.63;;;10.20;99.90;;;;;;4994241;28;20197;-83
2023/05/23 03:17:18;;;;;;;14.75;7.85;;;10.20;99.90;;;;;;4994199;28;20538;-83
2023/05/23 03:19:43;;;;;;;17.05;6.85;;;10.20;99.90;;;;;;4994081;28;20258;-83
2023/05/23 03:22:09;;;;;;;18.85;8.05;;;10.30;99.90;;;;;;5025473;28;20564;-83
2023/05/23 03:24:34;;;;;;;14.50;8.00;;;10.40;99.90;;;;;;4992534;28;20656;-82
2023/05/23 03:27:00;;;;;;;17.30;8.32;;;10.30;99.90;;;;;;5026149;28;20182;-83
2023/05/23 03:29:26;;;;;;;16.90;8.40;;;10.40;99.90;;;;;;5025603;28;20193;-83
2023/05/23 03:31:52;;;;;;;14.65;8.15;;;10.50;99.90;;;;;;5008852;28;20210;-83
2023/05/23 03:34:17;;;;;;;17.63;7.18;;;10.40;99.90;;;;;;5025740;28;20197;-81
2023/05/23 03:36:43;;;;;;;13.88;7.43;;;10.50;99.90;;;;;;5026498;28;20694;-81
2023/05/23 03:39:09;;;;;;;12.13;6.88;;;10.60;99.90;;;;;;5025710;28;20181;-81
2023/05/23 03:41:34;;;;;;;15.02;7.88;;;10.60;99.90;;;;;;5026651;28;20265;-82
2023/05/23 03:44:00;;;;;;;17.08;8.43;;;10.70;99.90;;;;;;5010270;28;20285;-82
2023/05/23 03:46:26;;;;;;;17.10;7.72;;;10.80;99.90;;;;;;5029821;28;20233;-82
2023/05/23 03:48:51;;;;;;;14.55;7.72;;;10.90;99.90;;;;;;5008250;28;20190;-82
2023/05/23 03:51:17;;;;;;;17.00;8.30;;;11.00;99.90;;;;;;5006183;28;20264;-81
2023/05/23 03:53:43;;;;;;;15.05;7.47;;;11.00;99.90;;;;;;5014891;28;20278;-82
2023/05/23 03:56:08;;;;;;;12.18;7.68;;;11.20;99.90;;;;;;4997734;28;20530;-83
2023/05/23 03:58:34;;;;;;;11.60;6.47;;;11.20;99.90;;;;;;4998407;28;20183;-83
2023/05/23 04:01:00;;;;;;;11.60;6.63;;;11.40;99.90;;;;;;5028240;28;20256;-82
2023/05/23 04:03:26;;;;;;;12.50;7.38;;;11.50;99.90;;;;;;5012878;28;20268;-82
2023/05/23 04:05:52;;;;;;;12.73;7.55;;;11.60;99.90;;;;;;5012282;28;20265;-82
2023/05/23 04:08:20;;;;;;;12.75;7.07;;;11.70;99.90;;;;;;5028774;28;20272;-83
2023/05/23 04:10:47;;;;;;;13.23;7.32;;;11.80;99.90;;;;;;5027293;28;20173;-82
2023/05/23 04:13:12;;;;;;;10.98;7.15;;;11.90;99.90;;;;;;4996868;28;20197;-82
2023/05/23 04:15:38;;;;;;;12.77;7.35;;;12.00;99.90;;;;;;5028054;28;20269;-82
2023/05/23 04:18:06;;;;;;;13.43;6.80;;;12.20;99.90;;;;;;5028561;28;20227;-82
2023/05/23 04:20:31;;;;;;;11.52;6.40;;;12.30;99.90;;;;;;5028454;28;20185;-82
2023/05/23 04:22:57;;;;;;;9.20;5.45;;;12.40;99.90;;;;;;5028427;28;20186;-82
2023/05/23 04:25:23;;;;;;;15.82;7.00;;;12.60;99.90;;;;;;5011913;28;20208;-82
2023/05/23 04:27:48;;;;;;;11.73;6.90;;;12.70;99.90;;;;;;5031016;28;20182;-81
2023/05/23 04:30:16;;;;;;;11.40;6.43;;;12.80;99.90;;;;;;4999872;28;20170;-82
2023/05/23 04:32:42;;;;;;;13.07;6.75;;;12.90;99.90;;;;;;5014906;28;20305;-81
2023/05/23 04:35:09;;;;;;;9.88;6.13;;;13.00;99.90;;;;;;5031723;28;20178;-82
2023/05/23 04:37:36;;;;;;;14.15;6.60;;;13.20;99.90;;;;;;4996371;28;20289;-84
2023/05/23 04:40:03;;;;;;;17.45;7.47;;;13.30;99.90;;;;;;5011077;28;20189;-82
2023/05/23 04:42:29;;;;;;;14.23;7.35;;;13.40;99.90;;;;;;4995002;28;20196;-82
2023/05/23 04:44:57;;;;;;;18.02;7.28;;;13.50;99.90;;;;;;5010654;28;20292;-82
2023/05/23 04:47:23;;;;;;;10.27;6.22;;;13.70;99.90;;;;;;4996253;28;20704;-81
2023/05/23 04:49:52;;;;;;;11.60;6.45;;;13.80;99.90;;;;;;4995283;28;20209;-81
2023/05/23 04:52:19;;;;;;;11.15;5.93;;;13.90;99.90;;;;;;5026549;28;20687;-82
2023/05/23 04:54:45;;;;;;;6.80;5.38;;;14.10;99.90;;;;;;5026679;28;20194;-82
2023/05/23 04:57:11;;;;;;;9.52;5.35;;;14.20;99.90;;;;;;4993747;28;20232;-82
2023/05/23 04:59:37;;;;;;;12.23;5.95;;;14.30;99.90;;;;;;5025646;28;20186;-81
2023/05/23 05:02:04;;;;;;;12.35;5.38;;;14.40;99.90;;;;;;5009877;28;20197;-81
2023/05/23 05:04:30;;;;;;;9.85;5.35;;;14.50;99.90;;;;;;4995218;28;20236;-82
2023/05/23 05:06:56;;;;;;;10.45;5.25;;;14.60;99.90;;;;;;4995070;28;20182;-81
2023/05/23 05:09:22;;;;;;;5.47;3.92;;;14.80;99.90;;;;;;5026704;28;20209;-80
2023/05/23 05:11:47;;;;;;;8.68;4.88;;;14.90;99.90;;;;;;5026069;28;20369;-81
2023/05/23 05:14:13;;;;;;;6.28;4.15;;;15.00;99.90;;;;;;5026663;28;20193;-82
2023/05/23 05:16:39;;;;;;;7.47;4.30;;;15.20;99.90;;;;;;4994922;28;20220;-82
2023/05/23 05:19:05;;;;;;;6.65;3.92;;;15.30;99.90;;;;;;4995237;28;20208;-82
2023/05/23 05:21:30;;;;;;;13.35;3.72;;;15.50;99.90;;;;;;5026465;28;20623;-83
2023/05/23 05:23:56;;;;;;;8.40;3.35;;;15.60;99.90;;;;;;5026203;28;20241;-81
2023/05/23 05:26:22;;;;;;;4.63;2.90;;;15.80;99.90;;;;;;5026301;28;20204;-82
2023/05/23 05:28:48;;;;;;;3.30;2.92;;;15.90;99.90;;;;;;5030309;28;20186;-82
2023/05/23 05:31:14;;;;;;;5.07;3.28;;;16.00;99.90;;;;;;4994402;28;20264;-82
2023/05/23 05:33:40;;;;;;;3.95;2.85;;;16.10;99.90;;;;;;4994540;28;20186;-82
2023/05/23 05:36:06;;;;;;;4.65;3.10;;;16.20;99.90;;;;;;5026104;28;20189;-80
2023/05/23 05:38:32;;;;;;;4.85;3.10;;;16.40;99.90;;;;;;5009855;28;20237;-81
2023/05/23 05:40:58;;;;;;;8.20;2.97;;;16.50;99.90;;;;;;5026449;28;20185;-81
2023/05/23 05:43:25;;;;;;;4.28;2.95;;;16.60;99.90;;;;;;4993398;28;20186;-82
2023/05/23 05:45:50;;;;;;;5.50;2.53;;;16.70;99.90;;;;;;4994904;28;20236;-82
2023/05/23 05:48:16;;;;;;;4.78;3.00;;;16.80;99.90;;;;;;5025848;28;20174;-81
2023/05/23 05:50:44;;;;;;;4.10;2.85;;;16.90;99.90;;;;;;5009416;28;20186;-83
2023/05/23 05:53:11;;;;;;;4.75;2.90;;;17.00;99.90;;;;;;5027133;28;20209;-82
2023/05/23 05:55:37;;;;;;;4.28;2.83;;;17.00;99.90;;;;;;4994721;28;20182;-81
2023/05/23 05:58:03;;;;;;;3.47;2.80;;;17.10;99.90;;;;;;5009508;28;20189;-81
2023/05/23 06:00:29;;;;;;;7.57;4.13;;;17.20;99.90;;;;;;5009540;28;20186;-80
2023/05/23 06:02:58;;;;;;;4.78;3.10;;;17.20;99.90;;;;;;5009870;28;20186;-82
2023/05/23 06:05:25;;;;;;;8.57;3.15;;;17.40;99.90;;;;;;4994589;28;20217;-82
2023/05/23 06:07:51;;;;;;;4.50;2.92;;;17.40;99.90;;;;;;4994168;28;20642;-83
2023/05/23 06:10:17;;;;;;;4.90;3.00;;;17.40;99.90;;;;;;4994217;28;20304;-85
2023/05/23 06:12:44;;;;;;;6.53;3.42;;;17.50;99.90;;;;;;4994238;28;20198;-82
2023/05/23 06:15:12;;;;;;;7.20;3.88;;;17.60;99.90;;;;;;4994340;28;20213;-80
2023/05/23 06:17:37;;;;;;;6.53;3.80;;;17.80;99.90;;;;;;4992949;28;20269;-80
2023/05/23 06:20:04;;;;;;;6.75;3.50;;;18.00;99.90;;;;;;4995308;28;20592;-83
2023/05/23 06:22:29;;;;;;;6.97;3.38;;;18.10;99.90;;;;;;5026537;28;20189;-80
2023/05/23 06:24:55;;;;;;;7.30;4.22;;;18.10;97.90;;;;;;5025644;28;20549;-81
2023/05/23 06:27:20;;;;;;;8.13;3.70;;;18.20;99.10;;;;;;4993844;28;20236;-80
2023/05/23 06:29:46;;;;;;;6.47;2.65;;;18.30;99.90;;;;;;4995696;28;20193;-79
2023/05/23 06:32:12;;;;;;;5.70;3.00;;;18.40;99.70;;;;;;4995334;28;20662;-78
2023/05/23 06:34:37;;;;;;;4.90;3.10;;;18.50;97.70;;;;;;5028099;28;20548;-79
2023/05/23 06:37:03;;;;;;;7.95;3.03;;;18.60;97.30;;;;;;5034684;28;20192;-80
2023/05/23 06:39:29;;;;;;;5.00;2.75;;;18.80;98.40;;;;;;5028328;28;20610;-79
2023/05/23 06:41:55;;;;;;;7.15;3.08;;;18.80;95.10;;;;;;5025330;28;20182;-79
2023/05/23 06:44:21;;;;;;;7.20;3.15;;;18.90;94.70;;;;;;5011885;28;20273;-80
2023/05/23 06:46:47;;;;;;;5.38;3.42;;;19.10;94.00;;;;;;4995434;28;20221;-78
2023/05/23 06:49:14;;;;;;;5.35;3.08;;;19.20;95.90;;;;;;5009497;28;20186;-80
2023/05/23 06:51:40;;;;;;;4.18;2.60;;;19.30;95.80;;;;;;4995185;28;20356;-81
2023/05/23 06:54:06;;;;;;;4.32;2.78;;;19.40;90.80;;;;;;4993797;28;20268;-81
2023/05/23 06:56:31;;;;;;;4.68;2.70;;;19.50;91.00;;;;;;4992267;28;20170;-82
2023/05/23 06:58:58;;;;;;;8.65;3.08;;;19.60;90.50;;;;;;4993290;28;20601;-82
2023/05/23 07:01:24;;;;;;;6.32;3.42;;;19.70;90.70;;;;;;4993529;28;20188;-81
2023/05/23 07:03:49;;;;;;;5.65;3.00;;;19.70;88.50;;;;;;5024994;28;20551;-82
2023/05/23 07:06:15;;;;;;;4.72;2.97;;;19.80;89.80;;;;;;5024764;28;20173;-82
2023/05/23 07:08:41;;;;;;;5.88;2.80;;;19.90;84.00;;;;;;5025318;28;20194;-82
2023/05/23 07:11:06;;;;;;;5.32;3.00;;;20.10;83.00;;;;;;5025020;28;20209;-82
2023/05/23 07:13:32;;;;;;;7.47;2.70;;;20.20;85.10;;;;;;4993259;28;20217;-82
2023/05/23 07:15:58;;;;;;;7.70;3.00;;;20.30;84.60;;;;;;4993365;28;20186;-82
2023/05/23 07:18:23;;;;;;;5.75;3.05;;;20.40;85.40;;;;;;4993050;28;20643;-82
2023/05/23 07:20:49;;;;;;;4.03;2.17;;;20.50;83.00;;;;;;5025093;28;20178;-82
2023/05/23 07:23:15;;;;;;;3.58;2.53;;;20.50;82.70;;;;;;5024313;28;20240;-81
2023/05/23 07:25:41;;;;;;;5.57;2.78;;;20.60;81.90;;;;;;5025603;28;20182;-81
2023/05/23 07:28:07;;;;;;;4.63;3.05;;;20.60;80.80;;;;;;4994635;28;20639;-82
2023/05/23 07:30:33;;;;;;;3.88;2.65;;;20.60;79.50;;;;;;5025941;28;20623;-81
2023/05/23 07:32:59;;;;;;;2.95;2.20;;;20.70;79.10;;;;;;4993438;28;20210;-82
2023/05/23 07:35:25;;;;;;;2.95;2.53;;;20.70;78.30;;;;;;5025394;28;20182;-82
2023/05/23 07:37:54;;;;;;;4.38;2.75;;;20.80;75.30;;;;;;4993946;28;20226;-82
2023/05/23 07:40:21;;;;;;;3.47;2.50;;;20.90;72.70;;;;;;5008802;28;20324;-82
2023/05/23 07:42:47;;;;;;;6.65;2.65;;;21.00;72.90;;;;;;5025166;28;20247;-82
2023/05/23 07:45:13;;;;;;;2.83;2.50;;;21.10;74.80;;;;;;4993796;28;20734;-82
2023/05/23 07:47:39;;;;;;;3.63;2.53;;;21.20;73.80;;;;;;5009052;28;20182;-82
2023/05/23 07:50:05;;;;;;;6.05;2.78;;;21.20;75.60;;;;;;4993669;28;20616;-82
2023/05/23 07:52:31;;;;;;;4.15;2.47;;;21.20;75.00;;;;;;4993488;28;20252;-82
2023/05/23 07:54:58;;;;;;;3.88;2.45;;;21.20;75.80;;;;;;4992574;28;20276;-82
2023/05/23 07:57:24;;;;;;;8.25;2.95;;;21.30;72.60;;;;;;4994187;28;20178;-81
2023/05/23 07:59:51;;;;;;;3.53;2.65;;;21.40;72.00;;;;;;4993985;28;20244;-81
2023/05/23 08:02:17;;;;;;;3.33;2.55;;;21.40;69.70;;;;;;4993724;28;20194;-81
2023/05/23 08:04:44;;;;;;;5.68;2.55;;;21.40;70.70;;;;;;5025288;28;20651;-80
2023/05/23 08:07:10;;;;;;;6.57;2.70;;;21.40;71.40;;;;;;5008731;28;20174;-82
2023/05/23 08:09:37;;;;;;;4.05;2.38;;;21.40;71.00;;;;;;4993870;28;20189;-81
2023/05/23 08:12:02;;;;;;;2.75;2.15;;;21.50;67.60;;;;;;5024878;28;20198;-82
2023/05/23 08:14:28;;;;;;;5.32;2.90;;;21.60;67.50;;;;;;5008600;28;20244;-81
2023/05/23 08:16:54;;;;;;;2.78;2.08;;;21.70;65.80;;;;;;4993631;28;20202;-81
2023/05/23 08:19:19;;;;;;;4.22;2.35;;;21.90;67.90;;;;;;4993240;28;20239;-81
2023/05/23 08:21:46;;;;;;;5.35;2.55;;;21.90;64.70;;;;;;4993683;28;20265;-78
2023/05/23 08:24:11;;;;;;;4.32;2.58;;;22.00;65.10;;;;;;5024737;28;20228;-81
2023/05/23 08:26:38;;;;;;;3.08;2.28;;;21.90;65.60;;;;;;4993556;28;20178;-78
2023/05/23 08:29:04;;;;;;;3.30;2.40;;;21.90;63.90;;;;;;5024824;28;20561;-79
2023/05/23 08:31:30;;;;;;;3.75;2.35;;;22.00;63.50;;;;;;4992124;28;20174;-79
2023/05/23 08:33:57;;;;;;;4.10;2.17;;;21.90;62.30;;;;;;5008521;28;20738;-79
2023/05/23 08:36:23;;;;;;;4.63;2.40;;;21.90;63.20;;;;;;4996866;28;20174;-79
2023/05/23 08:38:51;;;;;;;2.80;2.10;;;22.00;64.20;;;;;;4997304;28;20520;-78
2023/05/23 08:41:21;;;;;;;2.28;2.00;;;22.20;62.20;;;;;;5028633;28;20228;-79
2023/05/23 08:43:48;;;;;;;3.17;2.25;;;22.30;65.20;;;;;;4996620;28;20253;-79
2023/05/23 08:46:16;;;;;;;2.35;1.88;;;22.30;63.20;;;;;;4997079;28;20225;-79
2023/05/23 08:48:48;;;;;;;3.13;2.00;;;22.40;61.60;;;;;;4997072;28;20722;-79
2023/05/23 08:51:16;;;;;;;3.63;2.80;;;22.50;58.70;;;;;;5028402;28;20186;-80
2023/05/23 08:53:45;;;;;;;2.85;2.25;;;22.70;61.40;;;;;;4995995;28;20257;-83
2023/05/23 08:56:12;;;;;;;2.90;2.10;;;22.70;62.20;;;;;;4993664;28;20178;-83
2023/05/23 08:58:42;;;;;;;6.85;2.45;;;22.80;61.80;;;;;;5026185;28;20186;-83
2023/05/23 09:01:09;;;;;;;3.25;2.15;;;22.80;61.70;;;;;;5009422;28;20194;-83
2023/05/23 09:03:36;;;;;;;3.08;2.28;;;22.80;60.10;;;;;;5026163;28;20178;-82
2023/05/23 09:06:06;;;;;;;3.47;1.98;;;22.90;60.20;;;;;;4994659;28;20623;-81
2023/05/23 09:08:32;;;;;;;2.97;1.83;;;23.00;58.90;;;;;;4994731;28;20155;-82
2023/05/23 09:11:01;;;;;;;4.22;2.33;;;23.00;58.20;;;;;;5025858;28;20797;-82
2023/05/23 09:13:30;;;;;;;3.42;2.20;;;23.10;58.30;;;;;;4994384;28;20202;-82
2023/05/23 09:15:58;;;;;;;5.90;2.10;;;23.10;57.90;;;;;;5009162;28;20223;-83
2023/05/23 09:18:41;;;;;;;2.67;2.22;;;23.10;58.60;;;;;;5025762;28;20708;-81
2023/05/23 09:21:08;;;;;;;4.60;2.13;;;23.00;57.30;;;;;;4994921;28;20249;-83
2023/05/23 09:23:39;;;;;;;4.72;2.35;;;23.10;56.50;;;;;;4994261;28;20181;-82
2023/05/23 09:26:09;;;;;;;2.20;1.80;;;23.10;57.30;;;;;;5025998;28;20186;-81
2023/05/23 09:28:37;;;;;;;3.17;2.08;;;23.30;57.70;;;;;;5026379;28;20237;-81
2023/05/23 09:31:05;;;;;;;3.53;2.30;;;23.40;58.40;;;;;;4995048;28;20227;-82
2023/05/23 09:33:48;;;;;;;3.38;2.55;;;23.50;58.10;;;;;;5025294;28;20283;-81
2023/05/23 09:36:14;;;;;;;7.47;2.40;;;23.60;56.90;;;;;;5026060;28;20260;-82
2023/05/23 09:38:41;;;;;;;3.63;2.13;;;23.60;55.60;;;;;;4994452;28;20268;-80
2023/05/23 09:41:07;;;;;;;5.65;2.45;;;23.50;55.70;;;;;;5009319;28;20205;-82
2023/05/23 09:43:33;;;;;;;4.93;2.40;;;23.70;55.00;;;;;;4992996;28;20655;-82
2023/05/23 09:46:12;;;;;;;2.88;2.33;;;23.70;53.10;;;;;;4993992;28;20236;-82
2023/05/23 09:48:38;;;;;;;3.85;2.65;;;23.70;52.50;;;;;;4994445;28;20209;-81
2023/05/23 09:51:07;;;;;;;4.63;2.38;;;23.80;52.60;;;;;;4994139;28;20186;-83
2023/05/23 09:53:33;;;;;;;2.72;2.10;;;24.00;52.60;;;;;;4994313;28;20292;-81
2023/05/23 09:56:02;;;;;;;6.68;2.05;;;24.00;52.50;;;;;;4994294;28;20189;-81
2023/05/23 09:58:29;;;;;;;3.15;1.95;;;24.20;52.70;;;;;;4993914;28;20173;-81
2023/05/23 10:00:56;;;;;;;3.38;2.13;;;24.10;52.80;;;;;;4993184;28;20649;-81
2023/05/23 10:03:30;;;;;;;4.63;2.63;;;24.20;51.70;;;;;;4994083;28;20647;-81
2023/05/23 10:06:00;;;;;;;3.22;2.42;;;24.30;54.10;;;;;;4994700;28;20265;-82
2023/05/23 10:08:51;;;;;;;2.70;2.00;;;24.30;54.80;;;;;;4997041;28;20217;-82
2023/05/23 10:11:25;;;;;;;4.88;2.35;;;24.40;53.30;;;;;;5002382;28;20166;-82
2023/05/23 10:13:52;;;;;;;3.58;2.22;;;24.30;50.90;;;;;;5002033;28;20193;-82
2023/05/23 10:16:21;;;;;;;1.95;1.75;;;24.30;52.80;;;;;;4998799;28;20204;-81
2023/05/23 10:18:54;;;;;;;2.05;1.73;;;24.20;49.90;;;;;;5026617;28;20186;-80
2023/05/23 10:21:28;;;;;;;4.32;1.95;;;23.90;52.90;;;;;;4995415;28;20158;-83
2023/05/23 10:23:54;;;;;;;4.03;1.77;;;24.00;51.30;;;;;;4995261;28;20170;-81
2023/05/23 10:26:20;;;;;;;3.20;1.75;;;24.10;54.00;;;;;;5010349;28;20189;-80
2023/05/23 10:28:48;;;;;;;2.63;1.63;;;24.30;51.40;;;;;;5013895;28;20670;-79
2023/05/23 10:31:14;;;;;;;3.67;2.50;;;24.40;50.90;;;;;;4995663;28;20185;-81
2023/05/23 10:33:46;;;;;;;2.33;1.60;;;24.40;52.40;;;;;;4994586;28;20214;-80
2023/05/23 10:36:24;;;;;;;1.88;1.70;;;24.70;52.40;;;;;;4994919;28;20170;-81
2023/05/23 10:38:49;;;;;;;2.58;1.63;;;24.40;50.90;;;;;;4994964;28;20166;-83
2023/05/23 10:41:24;;;;;;;3.38;1.98;;;24.50;53.40;;;;;;5026278;28;20193;-81
2023/05/23 10:44:21;;;;;;;2.67;1.60;;;24.90;54.10;;;;;;4994881;28;20194;-82
2023/05/23 10:46:56;;;;;;;2.20;2.00;;;25.00;51.40;;;;;;5026157;28;20658;-81
2023/05/23 10:49:40;;;;;;;2.25;1.63;;;25.10;52.10;;;;;;4994525;28;20177;-82
2023/05/23 10:52:08;;;;;;;2.38;1.95;;;25.20;52.60;;;;;;4994302;28;20217;-82
2023/05/23 10:54:42;;;;;;;2.05;1.73;;;25.20;51.50;;;;;;4994407;28;20186;-82
2023/05/23 10:57:10;;;;;;;2.53;1.83;;;25.00;51.40;;;;;;4994187;28;20174;-82
2023/05/23 10:59:38;;;;;;;1.70;1.60;;;24.90;50.10;;;;;;4993053;28;20178;-82
2023/05/23 11:02:12;;;;;;;3.35;1.70;;;25.00;51.30;;;;;;4993196;28;20212;-82
2023/05/23 11:04:38;;;;;;;2.00;1.45;;;25.00;48.90;;;;;;4994244;28;20607;-84
2023/05/23 11:07:03;;;;;;;2.47;1.83;;;25.10;51.80;;;;;;5025748;28;20193;-84
2023/05/23 11:09:29;;;;;;;1.85;1.40;;;24.90;49.80;;;;;;5026006;28;20190;-84
2023/05/23 11:12:05;;;;;;;1.85;1.60;;;24.90;51.10;;;;;;4994039;28;20209;-83
2023/05/23 11:14:31;;;;;;;2.50;1.80;;;25.10;51.70;;;;;;4993065;28;20635;-83
2023/05/23 11:16:58;;;;;;;2.47;1.83;;;25.10;51.10;;;;;;4994338;28;20184;-84
2023/05/23 11:19:27;;;;;;;2.63;1.88;;;25.20;50.90;;;;;;4994191;28;20182;-85
2023/05/23 11:21:55;;;;;;;3.42;1.70;;;25.20;50.70;;;;;;4994410;28;20248;-84
2023/05/23 11:24:21;;;;;;;2.13;1.60;;;25.30;50.00;;;;;;4993916;28;20297;-84
2023/05/23 11:27:11;;;;;;;3.10;1.60;;;25.40;50.00;;;;;;4994081;28;20178;-84
2023/05/23 11:29:37;;;;;;;2.17;1.42;;;25.50;51.20;;;;;;5025635;28;20583;-84
2023/05/23 11:32:11;;;;;;;2.22;1.55;;;25.50;50.40;;;;;;5028431;28;20240;-83
2023/05/23 11:34:40;;;;;;;2.28;1.77;;;25.60;49.50;;;;;;5000706;28;20180;-84
2023/05/23 11:37:07;;;;;;;2.88;1.80;;;25.70;50.80;;;;;;4996483;28;20182;-84
2023/05/23 11:39:32;;;;;;;3.20;1.80;;;25.80;49.10;;;;;;4992226;28;20654;-84
2023/05/23 11:42:02;;;;;;;2.53;1.25;;;25.80;49.00;;;;;;5025438;28;20269;-84
2023/05/23 11:44:29;;;;;;;1.95;1.48;;;25.80;49.20;;;;;;4993646;28;20664;-84
2023/05/23 11:47:06;;;;;;;3.85;1.92;;;25.70;48.10;;;;;;4993904;28;20272;-83
2023/05/23 11:49:38;;;;;;;4.13;1.60;;;25.70;49.00;;;;;;5025348;28;20193;-84
2023/05/23 11:52:06;;;;;;;2.10;1.80;;;25.60;49.30;;;;;;4992813;28;20209;-84
2023/05/23 11:54:32;;;;;;;1.77;1.50;;;25.60;48.20;;;;;;4992564;28;20593;-83
2023/05/23 11:56:58;;;;;;;2.78;1.58;;;25.50;48.70;;;;;;4993755;28;20174;-82
2023/05/23 11:59:25;;;;;;;2.33;1.70;;;25.50;49.60;;;;;;4993195;28;20190;-83
2023/05/23 12:01:51;;;;;;;2.47;1.70;;;25.60;49.90;;;;;;5008763;28;20201;-82
2023/05/23 12:04:18;;;;;;;1.95;1.70;;;25.60;48.50;;;;;;4994226;28;20182;-83
2023/05/23 12:06:47;;;;;;;4.15;1.85;;;25.50;49.60;;;;;;4993585;28;20174;-82
2023/05/23 12:09:13;;;;;;;9.55;1.70;;;25.40;46.80;;;;;;4996069;28;20229;-83
2023/05/23 12:11:40;;;;;;;2.28;1.58;;;25.30;47.60;;;;;;4997529;28;20177;-83
2023/05/23 12:14:15;;;;;;;2.85;1.70;;;25.30;49.70;;;;;;5028844;28;20269;-83
2023/05/23 12:16:45;;;;;;;3.08;2.05;;;25.60;49.10;;;;;;4997207;28;20570;-83
2023/05/23 12:19:12;;;;;;;2.85;2.08;;;25.70;48.30;;;;;;5002602;28;20595;-82
2023/05/23 12:21:46;;;;;;;4.43;1.80;;;25.50;49.00;;;;;;5008452;28;20174;-82
2023/05/23 12:24:24;;;;;;;5.57;1.90;;;25.70;48.20;;;;;;5004253;28;20185;-82
2023/05/23 12:26:54;;;;;;;2.45;1.75;;;25.80;46.50;;;;;;5001905;28;20345;-82
2023/05/23 12:29:27;;;;;;;2.38;1.67;;;25.70;47.80;;;;;;4997180;28;20240;-82
2023/05/23 12:31:52;;;;;;;3.08;1.98;;;25.80;47.40;;;;;;4998424;28;20259;-82
2023/05/23 12:34:19;;;;;;;1.73;1.40;;;26.10;46.50;;;;;;5005943;28;20241;-82
2023/05/23 12:36:47;;;;;;;3.35;1.42;;;26.30;46.60;;;;;;5007200;28;20189;-81
2023/05/23 12:39:14;;;;;;;2.17;1.45;;;26.30;48.30;;;;;;5003698;28;20174;-82
2023/05/23 12:41:43;;;;;;;3.55;1.65;;;25.90;44.70;;;;;;5028893;28;20265;-82
2023/05/23 12:44:10;;;;;;;3.88;1.80;;;25.70;47.30;;;;;;5012099;28;20202;-82
2023/05/23 12:46:36;;;;;;;2.13;1.52;;;25.70;47.10;;;;;;4999569;28;20251;-82